Airfield :
LOGIN :

Register | Disclaimer

   EN    FR    IT 

 










Legend :    VFR   Marginal VFR   IFR   Intensive IFR   Very Intensive IFR
Visi :
Ceiling :
>= 8 km
>= 3000ft
5 to 8 km
1000 to 3000 ft
1500m to 5 km
500 to 1000 ft
800 to 1500m
200 to 500 ft
< 800m
< 200 ft
Symbols :   Thunderstorms  Fog  Heavy snow  Heavy precipitations  Wind > 20 kt
SIGMETs :     Misc.  Thunderstorms  Icing  Turbulence  Mountain Waves  Volcanic Ashes






- Airport Elevation : 459 ft
- IATA code : CER


LFRC - Cherbourg / Maupertus

CURRENT METAR :
  • 170700Z AUTO 19006KT 9000 BKN042 OVC072 05/04 Q1009 TEMPO SHRA BKN003

EXPIRED METARs :
  • 170630Z AUTO 18005KT 9999 SCT042 BKN068 OVC180 04/04 Q1008 TEMPO SHRA BKN003
  • 170600Z AUTO 20005KT 9999 FEW025 BKN044 OVC180 05/04 Q1008 TEMPO SHRA BKN003
  • 170530Z AUTO 20005KT 9999 FEW024 SCT068 OVC180 04/03 Q1008 TEMPO SHRA BKN003
  • 170500Z AUTO 19005KT 9999 FEW038 BKN068 OVC180 04/03 Q1008
  • 170430Z AUTO 18004KT 9999 BKN041 OVC068 04/03 Q1008

TAF TAF LFRC
Valid from the 17 at 06:00 until the 17 at 15:00 UTC


170500Z 1706/1715 VRB03KT 9999 SCT030
PROB30
TEMPO 1706/1709 3000 BR BKN003
PROB30
TEMPO 1706/1715 5000 SHRA



MET'MAP, your aeronautical weather chart ! - Copyright ORBIFLY December 2007 - Disclaimer

ORBIFLY MET'MAP TEAM :

Programming & Development : Alexandra Zaïnal
Concept & Development : Baudouin d'Aumeries
Co-Development & Prog : Marc-Olivier Méhu
Technical & hardware support : Manuel Goepfert

Contact : metmap@orbifly.com




SOURCES & CREDITS :

   NOAA